PWSweather.com
Personal Weather Stations
Station Observations
MARRWS
Allansford VictoriaAU 3277

Allansford VictoriaAU 3277

Lat: -38.4003683814149, Lon: 142.569826841354

Elevation: 36

Station Type: Fine Offset X7062

http://home.vicnet.net.au/~marr/Weather/

Latest ConditionsUpdated 10:20:02 PM GMT+10:10 Monday, Jul 28, 2014
Currently Today's Max Today's Min Today's Average
Temperature 56.1°F13.4°C 66.0°F18.9°C 50.2°F10.1°C 57.0°F13.9°C
Dew Point 48.7°F9.3°C 53.3°F11.8°C 43.8°F6.6°C 47.7°F8.7°C
Winds 9.4 mph NW15.1 kmh NW 13.4 mph NW21.6 kmh NW - 8.1 mph 13.0 kmh
Wind Gusts 15.9 mph25.6 kmh 28.2 mph45.4 kmh - -
Humidity 76% 82% 55% 71%
Pressure 29.94 in1013.9 mb 30.13 in1020.3 mb 29.93 in1013.5 mb -
Hour Temp Dew Point Humidity Winds Wind Gusts Pressure Precip Precip Rate Daily Precip Total
10:20 PM 56.1°F13.4°C 48.7°F9.3°C 76% 9.4 mph NW15.1 kmh NW 15.9 mph25.6 kmh 29.94 in1013.9 mb 0.00 in0.0 mm 0.00 in/hr0.0 mm/hr 0.00 in0.0 mm
10:10 PM 55.9°F13.3°C 48.5°F9.2°C 76% 8.7 mph NW14.0 kmh NW 15.2 mph24.5 kmh 29.94 in1013.9 mb 0.00 in0.0 mm 0.00 in/hr0.0 mm/hr 0.00 in0.0 mm
10:00 PM 55.9°F13.3°C 48.5°F9.2°C 76% 9.1 mph NW14.6 kmh NW 15.9 mph25.6 kmh 29.95 in1014.2 mb 0.00 in0.0 mm 0.00 in/hr0.0 mm/hr 0.00 in0.0 mm
09:50 PM 56.1°F13.4°C 48.3°F9.1°C 75% 9.9 mph NW15.9 kmh NW 17.4 mph28.0 kmh 29.95 in1014.2 mb 0.00 in0.0 mm 0.00 in/hr0.0 mm/hr 0.00 in0.0 mm
09:40 PM 56.1°F13.4°C 48.3°F9.1°C 75% 9.7 mph NW15.6 kmh NW 19.0 mph30.6 kmh 29.95 in1014.2 mb 0.00 in0.0 mm 0.00 in/hr0.0 mm/hr 0.00 in0.0 mm
09:30 PM 55.8°F13.2°C 48.3°F9.1°C 76% 9.2 mph NW14.8 kmh NW 19.0 mph30.6 kmh 29.95 in1014.2 mb 0.00 in0.0 mm 0.00 in/hr0.0 mm/hr 0.00 in0.0 mm
09:20 PM 55.4°F13.0°C 48.0°F8.9°C 76% 9.0 mph NW14.5 kmh NW 15.9 mph25.6 kmh 29.95 in1014.2 mb 0.00 in0.0 mm 0.00 in/hr0.0 mm/hr 0.00 in0.0 mm
09:10 PM 55.2°F12.9°C 48.1°F8.9°C 77% 10.5 mph NW16.9 kmh NW 17.4 mph28.0 kmh 29.95 in1014.2 mb 0.00 in0.0 mm 0.00 in/hr0.0 mm/hr 0.00 in0.0 mm
09:00 PM 54.7°F12.6°C 48.0°F8.9°C 78% 8.1 mph NW13.0 kmh NW 14.5 mph23.3 kmh 29.95 in1014.2 mb 0.00 in0.0 mm 0.00 in/hr0.0 mm/hr 0.00 in0.0 mm
08:50 PM 54.9°F12.7°C 48.1°F8.9°C 78% 8.3 mph NW13.4 kmh NW 15.9 mph25.6 kmh 29.95 in1014.2 mb 0.00 in0.0 mm 0.00 in/hr0.0 mm/hr 0.00 in0.0 mm
08:40 PM 54.5°F12.5°C 47.8°F8.8°C 78% 7.3 mph NW11.7 kmh NW 15.2 mph24.5 kmh 29.95 in1014.2 mb 0.00 in0.0 mm 0.00 in/hr0.0 mm/hr 0.00 in0.0 mm
08:30 PM 54.5°F12.5°C 47.8°F8.8°C 78% 6.8 mph NW10.9 kmh NW 11.4 mph18.3 kmh 29.95 in1014.2 mb 0.00 in0.0 mm 0.00 in/hr0.0 mm/hr 0.00 in0.0 mm
08:20 PM 54.5°F12.5°C 47.8°F8.8°C 78% 6.8 mph NW10.9 kmh NW 12.1 mph19.5 kmh 29.95 in1014.2 mb 0.00 in0.0 mm 0.00 in/hr0.0 mm/hr 0.00 in0.0 mm
08:10 PM 54.3°F12.4°C 48.0°F8.9°C 79% 6.5 mph NW10.5 kmh NW 12.1 mph19.5 kmh 29.94 in1013.9 mb 0.00 in0.0 mm 0.00 in/hr0.0 mm/hr 0.00 in0.0 mm
08:00 PM 54.3°F12.4°C 47.6°F8.7°C 78% 4.9 mph NW7.9 kmh NW 9.2 mph14.8 kmh 29.95 in1014.2 mb 0.00 in0.0 mm 0.00 in/hr0.0 mm/hr 0.00 in0.0 mm
07:50 PM 55.0°F12.8°C 48.3°F9.1°C 78% 5.1 mph NW8.2 kmh NW 9.2 mph14.8 kmh 29.95 in1014.2 mb 0.00 in0.0 mm 0.00 in/hr0.0 mm/hr 0.00 in0.0 mm
07:40 PM 54.9°F12.7°C 48.1°F8.9°C 78% 5.3 mph NW8.5 kmh NW 13.0 mph20.9 kmh 29.95 in1014.2 mb 0.00 in0.0 mm 0.00 in/hr0.0 mm/hr 0.00 in0.0 mm
07:30 PM 54.1°F12.3°C 47.8°F8.8°C 79% 3.7 mph NNW6.0 kmh NNW 8.3 mph13.4 kmh 29.96 in1014.6 mb 0.00 in0.0 mm 0.00 in/hr0.0 mm/hr 0.00 in0.0 mm
07:20 PM 54.3°F12.4°C 47.6°F8.7°C 78% 3.2 mph NW5.1 kmh NW 6.9 mph11.1 kmh 29.95 in1014.2 mb 0.00 in0.0 mm 0.00 in/hr0.0 mm/hr 0.00 in0.0 mm
07:10 PM 55.2°F12.9°C 47.8°F8.8°C 76% 3.9 mph NW6.3 kmh NW 7.6 mph12.2 kmh 29.96 in1014.6 mb 0.00 in0.0 mm 0.00 in/hr0.0 mm/hr 0.00 in0.0 mm
07:00 PM 55.6°F13.1°C 47.8°F8.8°C 75% 4.6 mph NW7.4 kmh NW 9.8 mph15.8 kmh 29.95 in1014.2 mb 0.00 in0.0 mm 0.00 in/hr0.0 mm/hr 0.00 in0.0 mm
06:50 PM 55.9°F13.3°C 47.8°F8.8°C 74% 4.8 mph NNW7.7 kmh NNW 8.3 mph13.4 kmh 29.95 in1014.2 mb 0.00 in0.0 mm 0.00 in/hr0.0 mm/hr 0.00 in0.0 mm
06:40 PM 56.1°F13.4°C 48.0°F8.9°C 74% 4.2 mph NW6.8 kmh NW 7.6 mph12.2 kmh 29.96 in1014.6 mb 0.00 in0.0 mm 0.00 in/hr0.0 mm/hr 0.00 in0.0 mm
06:30 PM 56.7°F13.7°C 48.1°F8.9°C 73% 4.9 mph NW7.9 kmh NW 9.8 mph15.8 kmh 29.96 in1014.6 mb 0.00 in0.0 mm 0.00 in/hr0.0 mm/hr 0.00 in0.0 mm
06:20 PM 57.2°F14.0°C 48.3°F9.1°C 72% 5.8 mph NW9.3 kmh NW 9.8 mph15.8 kmh 29.96 in1014.6 mb 0.00 in0.0 mm 0.00 in/hr0.0 mm/hr 0.00 in0.0 mm
06:10 PM 57.4°F14.1°C 48.4°F9.1°C 72% 4.2 mph NW6.8 kmh NW 10.6 mph17.1 kmh 29.96 in1014.6 mb 0.00 in0.0 mm 0.00 in/hr0.0 mm/hr 0.00 in0.0 mm
06:00 PM 57.9°F14.4°C 49.0°F9.4°C 72% 5.0 mph NW8.0 kmh NW 10.7 mph17.2 kmh 29.95 in1014.2 mb 0.00 in0.0 mm 0.00 in/hr0.0 mm/hr 0.00 in0.0 mm
05:50 PM 58.3°F14.6°C 48.9°F9.4°C 71% 5.9 mph NW9.5 kmh NW 14.5 mph23.3 kmh 29.95 in1014.2 mb 0.00 in0.0 mm 0.00 in/hr0.0 mm/hr 0.00 in0.0 mm
05:40 PM 59.0°F15.0°C 49.2°F9.6°C 70% 6.5 mph NW10.5 kmh NW 13.6 mph21.9 kmh 29.95 in1014.2 mb 0.00 in0.0 mm 0.00 in/hr0.0 mm/hr 0.00 in0.0 mm
05:30 PM 59.7°F15.4°C 49.5°F9.7°C 69% 6.5 mph NW10.5 kmh NW 13.0 mph20.9 kmh 29.95 in1014.2 mb 0.00 in0.0 mm 0.00 in/hr0.0 mm/hr 0.00 in0.0 mm
05:20 PM 60.3°F15.7°C 49.7°F9.8°C 68% 6.9 mph NW11.1 kmh NW 12.1 mph19.5 kmh 29.94 in1013.9 mb 0.00 in0.0 mm 0.00 in/hr0.0 mm/hr 0.00 in0.0 mm
05:10 PM 60.8°F16.0°C 49.4°F9.7°C 66% 7.4 mph NW11.9 kmh NW 13.0 mph20.9 kmh 29.94 in1013.9 mb 0.00 in0.0 mm 0.00 in/hr0.0 mm/hr 0.00 in0.0 mm
05:00 PM 62.4°F16.9°C 49.2°F9.6°C 62% 7.6 mph NW12.2 kmh NW 13.0 mph20.9 kmh 29.94 in1013.9 mb 0.00 in0.0 mm 0.00 in/hr0.0 mm/hr 0.00 in0.0 mm
04:50 PM 63.1°F17.3°C 49.5°F9.7°C 61% 8.9 mph NW14.3 kmh NW 15.2 mph24.5 kmh 29.94 in1013.9 mb 0.00 in0.0 mm 0.00 in/hr0.0 mm/hr 0.00 in0.0 mm
04:40 PM 63.9°F17.7°C 49.7°F9.8°C 60% 9.3 mph NW15.0 kmh NW 16.8 mph27.0 kmh 29.93 in1013.5 mb 0.00 in0.0 mm 0.00 in/hr0.0 mm/hr 0.00 in0.0 mm
04:30 PM 64.4°F18.0°C 50.2°F10.1°C 60% 9.9 mph NW15.9 kmh NW 18.3 mph29.5 kmh 29.94 in1013.9 mb 0.00 in0.0 mm 0.00 in/hr0.0 mm/hr 0.00 in0.0 mm
04:20 PM 64.8°F18.2°C 50.1°F10.1°C 59% 10.3 mph NW16.6 kmh NW 22.1 mph35.6 kmh 29.94 in1013.9 mb 0.00 in0.0 mm 0.00 in/hr0.0 mm/hr 0.00 in0.0 mm
04:10 PM 64.2°F17.9°C 50.1°F10.1°C 60% 10.3 mph NW16.6 kmh NW 17.4 mph28.0 kmh 29.94 in1013.9 mb 0.00 in0.0 mm 0.00 in/hr0.0 mm/hr 0.00 in0.0 mm
04:00 PM 64.0°F17.8°C 49.4°F9.7°C 59% 10.2 mph NW16.4 kmh NW 20.6 mph33.2 kmh 29.95 in1014.2 mb 0.00 in0.0 mm 0.00 in/hr0.0 mm/hr 0.00 in0.0 mm
03:50 PM 65.5°F18.6°C 49.9°F9.9°C 57% 9.0 mph NW14.5 kmh NW 19.0 mph30.6 kmh 29.94 in1013.9 mb 0.00 in0.0 mm 0.00 in/hr0.0 mm/hr 0.00 in0.0 mm
03:40 PM 65.5°F18.6°C 49.9°F9.9°C 57% 11.1 mph NW17.9 kmh NW 22.1 mph35.6 kmh 29.95 in1014.2 mb 0.00 in0.0 mm 0.00 in/hr0.0 mm/hr 0.00 in0.0 mm
03:30 PM 65.7°F18.7°C 49.6°F9.8°C 56% 11.6 mph NW18.7 kmh NW 23.5 mph37.8 kmh 29.95 in1014.2 mb 0.00 in0.0 mm 0.00 in/hr0.0 mm/hr 0.00 in0.0 mm
03:20 PM 65.8°F18.8°C 49.7°F9.8°C 56% 11.4 mph NW18.3 kmh NW 23.5 mph37.8 kmh 29.95 in1014.2 mb 0.00 in0.0 mm 0.00 in/hr0.0 mm/hr 0.00 in0.0 mm
03:10 PM 65.3°F18.5°C 49.7°F9.8°C 57% 12.5 mph NW20.1 kmh NW 22.8 mph36.7 kmh 29.96 in1014.6 mb 0.00 in0.0 mm 0.00 in/hr0.0 mm/hr 0.00 in0.0 mm
03:00 PM 65.3°F18.5°C 49.7°F9.8°C 57% 12.0 mph NW19.3 kmh NW 22.8 mph36.7 kmh 29.95 in1014.2 mb 0.00 in0.0 mm 0.00 in/hr0.0 mm/hr 0.00 in0.0 mm
02:50 PM 66.0°F18.9°C 49.9°F9.9°C 56% 10.2 mph NW16.4 kmh NW 21.3 mph34.3 kmh 29.95 in1014.2 mb 0.00 in0.0 mm 0.00 in/hr0.0 mm/hr 0.00 in0.0 mm
02:40 PM 65.7°F18.7°C 49.1°F9.5°C 55% 11.1 mph NW17.9 kmh NW 22.1 mph35.6 kmh 29.96 in1014.6 mb 0.00 in0.0 mm 0.00 in/hr0.0 mm/hr 0.00 in0.0 mm
02:30 PM 65.5°F18.6°C 51.7°F10.9°C 61% 10.6 mph NW17.1 kmh NW 22.1 mph35.6 kmh 29.96 in1014.6 mb 0.00 in0.0 mm 0.00 in/hr0.0 mm/hr 0.00 in0.0 mm
02:20 PM 64.6°F18.1°C 49.9°F9.9°C 59% 12.7 mph NW20.4 kmh NW 27.3 mph43.9 kmh 29.97 in1014.9 mb 0.00 in0.0 mm 0.00 in/hr0.0 mm/hr 0.00 in0.0 mm
02:10 PM 64.9°F18.3°C 51.2°F10.7°C 61% 11.7 mph NW18.8 kmh NW 20.6 mph33.2 kmh 29.97 in1014.9 mb 0.00 in0.0 mm 0.00 in/hr0.0 mm/hr 0.00 in0.0 mm
02:00 PM 65.3°F18.5°C 52.0°F11.1°C 62% 9.5 mph NW15.3 kmh NW 18.3 mph29.5 kmh 29.98 in1015.2 mb 0.00 in0.0 mm 0.00 in/hr0.0 mm/hr 0.00 in0.0 mm
01:50 PM 63.5°F17.5°C 50.7°F10.4°C 63% 11.6 mph WNW18.7 kmh WNW 19.7 mph31.7 kmh 29.98 in1015.2 mb 0.00 in0.0 mm 0.00 in/hr0.0 mm/hr 0.00 in0.0 mm
01:40 PM 61.7°F16.5°C 49.8°F9.9°C 65% 13.0 mph NW20.9 kmh NW 22.1 mph35.6 kmh 29.98 in1015.2 mb 0.00 in0.0 mm 0.00 in/hr0.0 mm/hr 0.00 in0.0 mm
01:30 PM 63.3°F17.4°C 49.2°F9.6°C 60% 12.5 mph NW20.1 kmh NW 28.2 mph45.4 kmh 29.99 in1015.6 mb 0.00 in0.0 mm 0.00 in/hr0.0 mm/hr 0.00 in0.0 mm
01:20 PM 63.7°F17.6°C 49.6°F9.8°C 60% 11.7 mph NW18.8 kmh NW 21.3 mph34.3 kmh 29.99 in1015.6 mb 0.00 in0.0 mm 0.00 in/hr0.0 mm/hr 0.00 in0.0 mm
01:10 PM 63.0°F17.2°C 50.6°F10.3°C 64% 9.4 mph NW15.1 kmh NW 19.0 mph30.6 kmh 29.99 in1015.6 mb 0.00 in0.0 mm 0.00 in/hr0.0 mm/hr 0.00 in0.0 mm
01:00 PM 62.6°F17.0°C 51.1°F10.6°C 66% 11.6 mph NW18.7 kmh NW 20.6 mph33.2 kmh 30.00 in1015.9 mb 0.00 in0.0 mm 0.00 in/hr0.0 mm/hr 0.00 in0.0 mm
12:50 PM 62.6°F17.0°C 51.1°F10.6°C 66% 13.4 mph NW21.6 kmh NW 22.8 mph36.7 kmh 30.00 in1015.9 mb 0.00 in0.0 mm 0.00 in/hr0.0 mm/hr 0.00 in0.0 mm
12:40 PM 63.7°F17.6°C 51.3°F10.7°C 64% 11.7 mph NW18.8 kmh NW 22.8 mph36.7 kmh 30.01 in1016.3 mb 0.00 in0.0 mm 0.00 in/hr0.0 mm/hr 0.00 in0.0 mm
12:30 PM 63.0°F17.2°C 51.0°F10.6°C 65% 13.3 mph NW21.4 kmh NW 26.6 mph42.8 kmh 30.02 in1016.6 mb 0.00 in0.0 mm 0.00 in/hr0.0 mm/hr 0.00 in0.0 mm
12:20 PM 62.6°F17.0°C 50.7°F10.4°C 65% 13.3 mph NW21.4 kmh NW 23.5 mph37.8 kmh 30.02 in1016.6 mb 0.00 in0.0 mm 0.00 in/hr0.0 mm/hr 0.00 in0.0 mm
12:10 PM 62.8°F17.1°C 51.3°F10.7°C 66% 12.5 mph NW20.1 kmh NW 24.4 mph39.3 kmh 30.02 in1016.6 mb 0.00 in0.0 mm 0.00 in/hr0.0 mm/hr 0.00 in0.0 mm
12:00 PM 63.0°F17.2°C 51.8°F11.0°C 67% 11.4 mph NW18.3 kmh NW 20.6 mph33.2 kmh 30.03 in1016.9 mb 0.00 in0.0 mm 0.00 in/hr0.0 mm/hr 0.00 in0.0 mm
11:50 AM 62.4°F16.9°C 52.1°F11.2°C 69% 12.9 mph NW20.8 kmh NW 22.1 mph35.6 kmh 30.04 in1017.3 mb 0.00 in0.0 mm 0.00 in/hr0.0 mm/hr 0.00 in0.0 mm
11:40 AM 61.5°F16.4°C 51.3°F10.7°C 69% 11.4 mph NW18.3 kmh NW 22.1 mph35.6 kmh 30.04 in1017.3 mb 0.00 in0.0 mm 0.00 in/hr0.0 mm/hr 0.00 in0.0 mm
11:30 AM 61.9°F16.6°C 51.6°F10.9°C 69% 13.2 mph NW21.2 kmh NW 22.8 mph36.7 kmh 30.05 in1017.6 mb 0.00 in0.0 mm 0.00 in/hr0.0 mm/hr 0.00 in0.0 mm
11:20 AM 62.8°F17.1°C 52.9°F11.6°C 70% 9.5 mph NW15.3 kmh NW 15.9 mph25.6 kmh 30.05 in1017.6 mb 0.00 in0.0 mm 0.00 in/hr0.0 mm/hr 0.00 in0.0 mm
11:10 AM 62.4°F16.9°C 53.3°F11.8°C 72% 7.9 mph NW12.7 kmh NW 18.3 mph29.5 kmh 30.05 in1017.6 mb 0.00 in0.0 mm 0.00 in/hr0.0 mm/hr 0.00 in0.0 mm
11:00 AM 61.9°F16.6°C 52.8°F11.6°C 72% 7.3 mph NW11.7 kmh NW 13.6 mph21.9 kmh 30.05 in1017.6 mb 0.00 in0.0 mm 0.00 in/hr0.0 mm/hr 0.00 in0.0 mm
10:50 AM 61.0°F16.1°C 51.9°F11.1°C 72% 8.8 mph NW14.2 kmh NW 17.4 mph28.0 kmh 30.05 in1017.6 mb 0.00 in0.0 mm 0.00 in/hr0.0 mm/hr 0.00 in0.0 mm
10:40 AM 60.1°F15.6°C 51.4°F10.8°C 73% 11.4 mph NW18.3 kmh NW 21.3 mph34.3 kmh 30.05 in1017.6 mb 0.00 in0.0 mm 0.00 in/hr0.0 mm/hr 0.00 in0.0 mm
10:30 AM 59.9°F15.5°C 51.2°F10.7°C 73% 10.1 mph NW16.3 kmh NW 17.4 mph28.0 kmh 30.06 in1017.9 mb 0.00 in0.0 mm 0.00 in/hr0.0 mm/hr 0.00 in0.0 mm
10:20 AM 59.9°F15.5°C 51.2°F10.7°C 73% 8.9 mph NW14.3 kmh NW 16.8 mph27.0 kmh 30.06 in1017.9 mb 0.00 in0.0 mm 0.00 in/hr0.0 mm/hr 0.00 in0.0 mm
10:10 AM 59.4°F15.2°C 50.7°F10.4°C 73% 7.6 mph WNW12.2 kmh WNW 13.0 mph20.9 kmh 30.06 in1017.9 mb 0.00 in0.0 mm 0.00 in/hr0.0 mm/hr 0.00 in0.0 mm
10:00 AM 58.3°F14.6°C 50.4°F10.2°C 75% 8.2 mph NW13.2 kmh NW 15.2 mph24.5 kmh 30.07 in1018.3 mb 0.00 in0.0 mm 0.00 in/hr0.0 mm/hr 0.00 in0.0 mm
09:50 AM 57.4°F14.1°C 49.9°F9.9°C 76% 8.5 mph NW13.7 kmh NW 14.5 mph23.3 kmh 30.06 in1017.9 mb 0.00 in0.0 mm 0.00 in/hr0.0 mm/hr 0.00 in0.0 mm
09:40 AM 56.7°F13.7°C 49.5°F9.7°C 77% 8.8 mph NW14.2 kmh NW 15.9 mph25.6 kmh 30.06 in1017.9 mb 0.00 in0.0 mm 0.00 in/hr0.0 mm/hr 0.00 in0.0 mm
09:30 AM 55.9°F13.3°C 48.8°F9.3°C 77% 7.5 mph NW12.1 kmh NW 14.5 mph23.3 kmh 30.07 in1018.3 mb 0.00 in0.0 mm 0.00 in/hr0.0 mm/hr 0.00 in0.0 mm
09:20 AM 55.2°F12.9°C 48.5°F9.2°C 78% 7.1 mph NW11.4 kmh NW 13.6 mph21.9 kmh 30.06 in1017.9 mb 0.00 in0.0 mm 0.00 in/hr0.0 mm/hr 0.00 in0.0 mm
09:10 AM 54.5°F12.5°C 47.8°F8.8°C 78% 6.5 mph NW10.5 kmh NW 11.4 mph18.3 kmh 30.07 in1018.3 mb 0.00 in0.0 mm 0.00 in/hr0.0 mm/hr 0.00 in0.0 mm
09:00 AM 54.0°F12.2°C 47.3°F8.5°C 78% 6.4 mph NW10.3 kmh NW 13.6 mph21.9 kmh 30.07 in1018.3 mb 0.00 in0.0 mm 0.00 in/hr0.0 mm/hr 0.00 in0.0 mm
08:50 AM 53.4°F11.9°C 47.1°F8.4°C 79% 6.3 mph NW10.1 kmh NW 11.4 mph18.3 kmh 30.06 in1017.9 mb 0.00 in0.0 mm 0.00 in/hr0.0 mm/hr 0.00 in0.0 mm
08:40 AM 52.5°F11.4°C 46.2°F7.9°C 79% 5.5 mph NW8.9 kmh NW 13.0 mph20.9 kmh 30.06 in1017.9 mb 0.00 in0.0 mm 0.00 in/hr0.0 mm/hr 0.00 in0.0 mm
08:30 AM 51.6°F10.9°C 46.0°F7.8°C 81% 5.6 mph NNW9.0 kmh NNW 13.0 mph20.9 kmh 30.07 in1018.3 mb 0.00 in0.0 mm 0.00 in/hr0.0 mm/hr 0.00 in0.0 mm
08:20 AM 50.9°F10.5°C 45.3°F7.4°C 81% 5.6 mph NW9.0 kmh NW 9.8 mph15.8 kmh 30.07 in1018.3 mb 0.00 in0.0 mm 0.00 in/hr0.0 mm/hr 0.00 in0.0 mm
08:10 AM 50.4°F10.2°C 45.1°F7.3°C 82% 4.5 mph NW7.2 kmh NW 9.2 mph14.8 kmh 30.08 in1018.6 mb 0.00 in0.0 mm 0.00 in/hr0.0 mm/hr 0.00 in0.0 mm
08:00 AM 50.2°F10.1°C 44.6°F7.0°C 81% 4.5 mph NW7.2 kmh NW 8.3 mph13.4 kmh 30.08 in1018.6 mb 0.00 in0.0 mm 0.00 in/hr0.0 mm/hr 0.00 in0.0 mm
07:50 AM 50.4°F10.2°C 44.8°F7.1°C 81% 4.5 mph NW7.2 kmh NW 8.3 mph13.4 kmh 30.08 in1018.6 mb 0.00 in0.0 mm 0.00 in/hr0.0 mm/hr 0.00 in0.0 mm
07:40 AM 50.7°F10.4°C 44.8°F7.1°C 80% 4.7 mph NW7.6 kmh NW 9.8 mph15.8 kmh 30.08 in1018.6 mb 0.00 in0.0 mm 0.00 in/hr0.0 mm/hr 0.00 in0.0 mm
07:30 AM 50.9°F10.5°C 45.0°F7.2°C 80% 5.6 mph NW9.0 kmh NW 11.4 mph18.3 kmh 30.08 in1018.6 mb 0.00 in0.0 mm 0.00 in/hr0.0 mm/hr 0.00 in0.0 mm
07:20 AM 51.3°F10.7°C 45.3°F7.4°C 80% 6.4 mph NW10.3 kmh NW 11.4 mph18.3 kmh 30.08 in1018.6 mb 0.00 in0.0 mm 0.00 in/hr0.0 mm/hr 0.00 in0.0 mm
07:10 AM 51.3°F10.7°C 45.0°F7.2°C 79% 6.7 mph NW10.8 kmh NW 11.4 mph18.3 kmh 30.09 in1019.0 mb 0.00 in0.0 mm 0.00 in/hr0.0 mm/hr 0.00 in0.0 mm
07:00 AM 51.3°F10.7°C 44.6°F7.0°C 78% 7.1 mph NW11.4 kmh NW 13.0 mph20.9 kmh 30.09 in1019.0 mb 0.00 in0.0 mm 0.00 in/hr0.0 mm/hr 0.00 in0.0 mm
06:50 AM 51.4°F10.8°C 44.5°F6.9°C 77% 7.7 mph NW12.4 kmh NW 13.0 mph20.9 kmh 30.08 in1018.6 mb 0.00 in0.0 mm 0.00 in/hr0.0 mm/hr 0.00 in0.0 mm
06:40 AM 51.4°F10.8°C 44.5°F6.9°C 77% 7.5 mph NW12.1 kmh NW 14.5 mph23.3 kmh 30.08 in1018.6 mb 0.00 in0.0 mm 0.00 in/hr0.0 mm/hr 0.00 in0.0 mm
06:30 AM 51.4°F10.8°C 44.1°F6.7°C 76% 6.4 mph NW10.3 kmh NW 11.4 mph18.3 kmh 30.09 in1019.0 mb 0.00 in0.0 mm 0.00 in/hr0.0 mm/hr 0.00 in0.0 mm
06:20 AM 51.4°F10.8°C 44.1°F6.7°C 76% 7.1 mph NW11.4 kmh NW 13.0 mph20.9 kmh 30.08 in1018.6 mb 0.00 in0.0 mm 0.00 in/hr0.0 mm/hr 0.00 in0.0 mm
06:10 AM 51.8°F11.0°C 43.8°F6.6°C 74% 6.9 mph NW11.1 kmh NW 11.4 mph18.3 kmh 30.09 in1019.0 mb 0.00 in0.0 mm 0.00 in/hr0.0 mm/hr 0.00 in0.0 mm
06:00 AM 52.2°F11.2°C 43.8°F6.6°C 73% 7.3 mph NW11.7 kmh NW 12.1 mph19.5 kmh 30.08 in1018.6 mb 0.00 in0.0 mm 0.00 in/hr0.0 mm/hr 0.00 in0.0 mm
05:50 AM 52.2°F11.2°C 43.8°F6.6°C 73% 7.5 mph NW12.1 kmh NW 12.1 mph19.5 kmh 30.08 in1018.6 mb 0.00 in0.0 mm 0.00 in/hr0.0 mm/hr 0.00 in0.0 mm
05:40 AM 52.3°F11.3°C 44.0°F6.7°C 73% 7.4 mph NW11.9 kmh NW 11.4 mph18.3 kmh 30.07 in1018.3 mb 0.00 in0.0 mm 0.00 in/hr0.0 mm/hr 0.00 in0.0 mm
05:30 AM 52.5°F11.4°C 44.1°F6.7°C 73% 7.9 mph NW12.7 kmh NW 16.8 mph27.0 kmh 30.08 in1018.6 mb 0.00 in0.0 mm 0.00 in/hr0.0 mm/hr 0.00 in0.0 mm
05:20 AM 52.3°F11.3°C 44.3°F6.8°C 74% 6.9 mph NW11.1 kmh NW 13.0 mph20.9 kmh 30.08 in1018.6 mb 0.00 in0.0 mm 0.00 in/hr0.0 mm/hr 0.00 in0.0 mm
05:10 AM 52.2°F11.2°C 44.1°F6.7°C 74% 6.1 mph NW9.8 kmh NW 10.7 mph17.2 kmh 30.08 in1018.6 mb 0.00 in0.0 mm 0.00 in/hr0.0 mm/hr 0.00 in0.0 mm
05:00 AM 52.3°F11.3°C 44.0°F6.7°C 73% 6.8 mph NW10.9 kmh NW 12.1 mph19.5 kmh 30.09 in1019.0 mb 0.00 in0.0 mm 0.00 in/hr0.0 mm/hr 0.00 in0.0 mm
04:50 AM 52.5°F11.4°C 44.1°F6.7°C 73% 6.4 mph NW10.3 kmh NW 12.1 mph19.5 kmh 30.08 in1018.6 mb 0.00 in0.0 mm 0.00 in/hr0.0 mm/hr 0.00 in0.0 mm
04:40 AM 52.5°F11.4°C 44.1°F6.7°C 73% 6.5 mph NNW10.5 kmh NNW 11.4 mph18.3 kmh 30.08 in1018.6 mb 0.00 in0.0 mm 0.00 in/hr0.0 mm/hr 0.00 in0.0 mm
04:30 AM 52.5°F11.4°C 44.1°F6.7°C 73% 6.4 mph NW10.3 kmh NW 11.4 mph18.3 kmh 30.08 in1018.6 mb 0.00 in0.0 mm 0.00 in/hr0.0 mm/hr 0.00 in0.0 mm
04:20 AM 52.5°F11.4°C 44.1°F6.7°C 73% 6.0 mph NW9.7 kmh NW 12.1 mph19.5 kmh 30.08 in1018.6 mb 0.00 in0.0 mm 0.00 in/hr0.0 mm/hr 0.00 in0.0 mm
04:10 AM 52.5°F11.4°C 44.5°F6.9°C 74% 5.5 mph NW8.9 kmh NW 9.8 mph15.8 kmh 30.09 in1019.0 mb 0.00 in0.0 mm 0.00 in/hr0.0 mm/hr 0.00 in0.0 mm
04:00 AM 52.5°F11.4°C 44.5°F6.9°C 74% 5.5 mph NW8.9 kmh NW 11.4 mph18.3 kmh 30.09 in1019.0 mb 0.00 in0.0 mm 0.00 in/hr0.0 mm/hr 0.00 in0.0 mm
03:50 AM 52.5°F11.4°C 44.5°F6.9°C 74% 5.8 mph NW9.3 kmh NW 11.4 mph18.3 kmh 30.09 in1019.0 mb 0.00 in0.0 mm 0.00 in/hr0.0 mm/hr 0.00 in0.0 mm
03:40 AM 52.7°F11.5°C 44.7°F7.1°C 74% 6.3 mph NW10.1 kmh NW 12.1 mph19.5 kmh 30.10 in1019.3 mb 0.00 in0.0 mm 0.00 in/hr0.0 mm/hr 0.00 in0.0 mm
03:30 AM 52.7°F11.5°C 44.7°F7.1°C 74% 5.9 mph NW9.5 kmh NW 10.7 mph17.2 kmh 30.10 in1019.3 mb 0.00 in0.0 mm 0.00 in/hr0.0 mm/hr 0.00 in0.0 mm
03:20 AM 52.9°F11.6°C 44.5°F6.9°C 73% 6.3 mph NW10.1 kmh NW 11.4 mph18.3 kmh 30.09 in1019.0 mb 0.00 in0.0 mm 0.00 in/hr0.0 mm/hr 0.00 in0.0 mm
03:10 AM 53.4°F11.9°C 45.0°F7.2°C 73% 7.4 mph NW11.9 kmh NW 13.0 mph20.9 kmh 30.09 in1019.0 mb 0.00 in0.0 mm 0.00 in/hr0.0 mm/hr 0.00 in0.0 mm
03:00 AM 53.4°F11.9°C 45.0°F7.2°C 73% 7.5 mph NW12.1 kmh NW 13.0 mph20.9 kmh 30.10 in1019.3 mb 0.00 in0.0 mm 0.00 in/hr0.0 mm/hr 0.00 in0.0 mm
02:50 AM 53.4°F11.9°C 45.0°F7.2°C 73% 7.1 mph NW11.4 kmh NW 13.6 mph21.9 kmh 30.11 in1019.6 mb 0.00 in0.0 mm 0.00 in/hr0.0 mm/hr 0.00 in0.0 mm
02:40 AM 53.6°F12.0°C 44.8°F7.1°C 72% 7.5 mph NW12.1 kmh NW 14.5 mph23.3 kmh 30.11 in1019.6 mb 0.00 in0.0 mm 0.00 in/hr0.0 mm/hr 0.00 in0.0 mm
02:30 AM 53.8°F12.1°C 44.6°F7.0°C 71% 7.9 mph NW12.7 kmh NW 13.0 mph20.9 kmh 30.10 in1019.3 mb 0.00 in0.0 mm 0.00 in/hr0.0 mm/hr 0.00 in0.0 mm
02:20 AM 53.6°F12.0°C 44.8°F7.1°C 72% 7.8 mph NW12.6 kmh NW 16.8 mph27.0 kmh 30.11 in1019.6 mb 0.00 in0.0 mm 0.00 in/hr0.0 mm/hr 0.00 in0.0 mm
02:10 AM 53.4°F11.9°C 45.0°F7.2°C 73% 8.0 mph NW12.9 kmh NW 16.8 mph27.0 kmh 30.11 in1019.6 mb 0.00 in0.0 mm 0.00 in/hr0.0 mm/hr 0.00 in0.0 mm
02:00 AM 53.4°F11.9°C 45.0°F7.2°C 73% 8.7 mph NW14.0 kmh NW 15.2 mph24.5 kmh 30.11 in1019.6 mb 0.00 in0.0 mm 0.00 in/hr0.0 mm/hr 0.00 in0.0 mm
01:50 AM 53.4°F11.9°C 45.0°F7.2°C 73% 9.5 mph NW15.3 kmh NW 17.4 mph28.0 kmh 30.11 in1019.6 mb 0.00 in0.0 mm 0.00 in/hr0.0 mm/hr 0.00 in0.0 mm
01:40 AM 53.6°F12.0°C 44.8°F7.1°C 72% 9.5 mph NW15.3 kmh NW 17.4 mph28.0 kmh 30.11 in1019.6 mb 0.00 in0.0 mm 0.00 in/hr0.0 mm/hr 0.00 in0.0 mm
01:30 AM 53.6°F12.0°C 44.8°F7.1°C 72% 9.4 mph NW15.1 kmh NW 19.0 mph30.6 kmh 30.11 in1019.6 mb 0.00 in0.0 mm 0.00 in/hr0.0 mm/hr 0.00 in0.0 mm
01:20 AM 54.0°F12.2°C 44.8°F7.1°C 71% 7.9 mph NW12.7 kmh NW 14.5 mph23.3 kmh 30.11 in1019.6 mb 0.00 in0.0 mm 0.00 in/hr0.0 mm/hr 0.00 in0.0 mm
01:00 AM 54.1°F12.3°C 45.0°F7.2°C 71% 8.1 mph NW13.0 kmh NW 13.0 mph20.9 kmh 30.12 in1020.0 mb 0.00 in0.0 mm 0.00 in/hr0.0 mm/hr 0.00 in0.0 mm
12:50 AM 54.3°F12.4°C 45.1°F7.3°C 71% 8.3 mph NW13.4 kmh NW 15.2 mph24.5 kmh 30.13 in1020.3 mb 0.00 in0.0 mm 0.00 in/hr0.0 mm/hr 0.00 in0.0 mm
12:40 AM 54.7°F12.6°C 45.1°F7.3°C 70% 8.2 mph NW13.2 kmh NW 13.6 mph21.9 kmh 30.13 in1020.3 mb 0.00 in0.0 mm 0.00 in/hr0.0 mm/hr 0.00 in0.0 mm
12:30 AM 55.2°F12.9°C 45.6°F7.6°C 70% 9.4 mph NW15.1 kmh NW 17.4 mph28.0 kmh 30.13 in1020.3 mb 0.00 in0.0 mm 0.00 in/hr0.0 mm/hr 0.00 in0.0 mm
12:20 AM 55.0°F12.8°C 45.4°F7.4°C 70% 8.6 mph NW13.8 kmh NW 19.7 mph31.7 kmh 30.13 in1020.3 mb 0.00 in0.0 mm 0.00 in/hr0.0 mm/hr 0.00 in0.0 mm
12:10 AM 55.2°F12.9°C 45.6°F7.6°C 70% 7.8 mph NW12.6 kmh NW 13.6 mph21.9 kmh 30.13 in1020.3 mb 0.00 in0.0 mm 0.00 in/hr0.0 mm/hr 0.00 in0.0 mm
12:00 AM 55.4°F13.0°C 45.8°F7.7°C 70% 8.3 mph NW13.4 kmh NW 14.5 mph23.3 kmh 30.13 in1020.3 mb 0.00 in0.0 mm 0.00 in/hr0.0 mm/hr 0.00 in0.0 mm